Time;durP1;ratioP1;P1;durP2;ratioP2;P2;SDS_P1;SDS_P2;PMS_P1;PMS_P2;Temp;Humidity;BMP_temperature;BMP_pressure;BME280_temperature;BME280_humidity;BME280_pressure;Samples;Min_cycle;Max_cycle;Signal;HPM_P1;HPM_P2
2023/05/20 00:00:48;;;;;;;11.00;5.38;;;;;;;;;;5029797;28;20096;-58
2023/05/20 00:03:15;;;;;;;12.20;5.20;;;;;;;;;;5030452;28;20041;-59
2023/05/20 00:05:41;;;;;;;13.68;6.85;;;;;;;;;;5029044;28;20048;-58
2023/05/20 00:08:08;;;;;;;11.82;4.75;;;;;;;;;;5029904;28;22059;-59
2023/05/20 00:10:37;;;;;;;12.90;4.75;;;;;;;;;;5030149;28;20458;-58
2023/05/20 00:13:03;;;;;;;13.93;4.70;;;;;;;;;;5029227;28;20037;-58
2023/05/20 00:15:31;;;;;;;13.65;5.30;;;;;;;;;;5029389;28;20037;-59
2023/05/20 00:17:57;;;;;;;14.13;4.53;;;;;;;;;;5028714;28;20041;-59
2023/05/20 00:20:24;;;;;;;11.30;5.15;;;;;;;;;;5029017;28;20384;-58
2023/05/20 00:22:50;;;;;;;10.85;4.82;;;;;;;;;;5029729;28;20041;-59
2023/05/20 00:25:16;;;;;;;11.93;5.38;;;;;;;;;;5030410;28;20487;-58
2023/05/20 00:27:42;;;;;;;14.60;6.65;;;;;;;;;;5030272;28;20041;-58
2023/05/20 00:30:08;;;;;;;13.80;5.03;;;;;;;;;;5028165;28;20133;-59
2023/05/20 00:32:34;;;;;;;9.98;4.78;;;;;;;;;;5030417;28;20054;-59
2023/05/20 00:35:01;;;;;;;14.85;4.95;;;;;;;;;;5031157;28;20088;-59
2023/05/20 00:37:27;;;;;;;13.88;4.88;;;;;;;;;;5030930;28;20041;-59
2023/05/20 00:39:53;;;;;;;13.35;5.93;;;;;;;;;;5027478;28;20128;-59
2023/05/20 00:42:23;;;;;;;11.65;4.50;;;;;;;;;;5029727;28;20045;-58
2023/05/20 00:44:49;;;;;;;12.85;5.30;;;;;;;;;;5030199;28;20184;-59
2023/05/20 00:47:20;;;;;;;12.43;5.28;;;;;;;;;;5038958;28;20045;-57
2023/05/20 00:49:46;;;;;;;13.18;5.40;;;;;;;;;;5011943;28;20049;-59
2023/05/20 00:52:13;;;;;;;12.35;5.55;;;;;;;;;;5027841;28;20138;-59
2023/05/20 00:54:40;;;;;;;13.18;5.40;;;;;;;;;;5028710;28;20119;-59
2023/05/20 00:57:07;;;;;;;14.02;5.32;;;;;;;;;;5028345;28;20051;-59
2023/05/20 00:59:34;;;;;;;11.48;5.10;;;;;;;;;;5027774;28;20045;-59
2023/05/20 01:02:01;;;;;;;13.07;5.35;;;;;;;;;;5027967;28;20041;-59
2023/05/20 01:04:27;;;;;;;14.57;6.45;;;;;;;;;;5029715;28;20417;-59
2023/05/20 01:06:54;;;;;;;9.95;5.30;;;;;;;;;;5011437;28;20124;-59
2023/05/20 01:09:20;;;;;;;12.60;4.93;;;;;;;;;;5027685;28;20426;-59
2023/05/20 01:12:03;;;;;;;14.45;5.20;;;;;;;;;;5025509;28;20056;-59
2023/05/20 01:14:30;;;;;;;11.52;5.43;;;;;;;;;;5025061;28;20055;-59
2023/05/20 01:16:58;;;;;;;9.85;5.30;;;;;;;;;;5028044;28;20537;-59
2023/05/20 01:19:32;;;;;;;13.57;4.97;;;;;;;;;;5033311;28;20123;-59
2023/05/20 01:21:59;;;;;;;12.15;5.57;;;;;;;;;;5028034;28;20055;-59
2023/05/20 01:24:26;;;;;;;12.13;5.78;;;;;;;;;;5027985;28;20064;-59
2023/05/20 01:26:52;;;;;;;11.50;5.65;;;;;;;;;;5029112;28;20037;-59
2023/05/20 01:29:18;;;;;;;14.65;6.32;;;;;;;;;;5029046;28;20470;-59
2023/05/20 01:31:45;;;;;;;17.77;6.07;;;;;;;;;;5028127;28;20038;-59
2023/05/20 01:34:11;;;;;;;12.93;5.90;;;;;;;;;;5029201;28;20045;-59
2023/05/20 01:36:39;;;;;;;14.82;5.93;;;;;;;;;;5029932;28;20172;-59
2023/05/20 01:39:05;;;;;;;15.88;6.43;;;;;;;;;;5022566;28;20045;-59
2023/05/20 01:41:33;;;;;;;16.88;7.05;;;;;;;;;;5029039;28;20045;-59
2023/05/20 01:43:59;;;;;;;14.55;6.03;;;;;;;;;;5028507;28;20053;-59
2023/05/20 01:46:25;;;;;;;13.93;6.35;;;;;;;;;;5030174;28;20451;-58
2023/05/20 01:48:54;;;;;;;14.98;5.72;;;;;;;;;;5029940;28;20042;-58
2023/05/20 01:51:20;;;;;;;12.15;6.38;;;;;;;;;;5009423;28;20030;-58
2023/05/20 01:53:46;;;;;;;15.63;6.72;;;;;;;;;;5025274;28;20040;-58
2023/05/20 01:56:12;;;;;;;13.75;6.40;;;;;;;;;;5028498;28;20398;-58
2023/05/20 01:58:38;;;;;;;12.65;7.32;;;;;;;;;;5029164;28;20045;-58
2023/05/20 02:01:04;;;;;;;16.35;7.00;;;;;;;;;;5021292;28;20091;-58
2023/05/20 02:03:30;;;;;;;12.82;6.90;;;;;;;;;;5029221;28;20040;-58
2023/05/20 02:05:56;;;;;;;14.30;6.30;;;;;;;;;;5028681;28;20045;-58
2023/05/20 02:08:22;;;;;;;19.73;6.72;;;;;;;;;;5029056;28;20034;-57
2023/05/20 02:10:48;;;;;;;14.02;6.22;;;;;;;;;;5028651;28;20380;-57
2023/05/20 02:13:14;;;;;;;12.15;5.97;;;;;;;;;;5028340;28;20165;-58
2023/05/20 02:15:41;;;;;;;16.95;6.80;;;;;;;;;;5029085;28;20499;-58
2023/05/20 02:18:07;;;;;;;15.85;6.57;;;;;;;;;;5028308;28;20038;-58
2023/05/20 02:20:36;;;;;;;15.20;6.32;;;;;;;;;;5024498;28;20639;-58
2023/05/20 02:23:04;;;;;;;14.15;6.20;;;;;;;;;;5021417;28;20492;-58
2023/05/20 02:25:30;;;;;;;13.68;5.78;;;;;;;;;;5033732;28;20037;-57
2023/05/20 02:27:56;;;;;;;16.27;6.78;;;;;;;;;;5028485;28;20045;-58
2023/05/20 02:30:22;;;;;;;13.60;6.47;;;;;;;;;;5028607;28;20041;-58
2023/05/20 02:32:48;;;;;;;12.38;6.72;;;;;;;;;;5028847;28;20065;-59
2023/05/20 02:35:15;;;;;;;15.02;6.80;;;;;;;;;;5030532;28;20033;-58
2023/05/20 02:37:43;;;;;;;17.13;6.85;;;;;;;;;;5031262;28;20409;-57
2023/05/20 02:40:09;;;;;;;12.52;6.15;;;;;;;;;;5027429;28;20530;-58
2023/05/20 02:42:35;;;;;;;12.27;6.40;;;;;;;;;;5030761;28;20469;-58
2023/05/20 02:45:01;;;;;;;16.02;6.18;;;;;;;;;;5032314;28;20048;-59
2023/05/20 02:47:27;;;;;;;18.92;6.38;;;;;;;;;;5024375;28;20042;-58
2023/05/20 02:49:53;;;;;;;9.90;5.82;;;;;;;;;;5031344;28;20514;-58
2023/05/20 02:52:20;;;;;;;12.18;6.03;;;;;;;;;;5025621;28;20041;-58
2023/05/20 02:54:46;;;;;;;14.02;6.80;;;;;;;;;;5030686;28;20131;-58
2023/05/20 02:57:12;;;;;;;10.93;6.03;;;;;;;;;;5031833;28;20060;-58
2023/05/20 02:59:38;;;;;;;13.60;6.22;;;;;;;;;;5031759;28;20503;-59
2023/05/20 03:02:04;;;;;;;12.20;6.13;;;;;;;;;;5028992;28;20451;-58
2023/05/20 03:04:30;;;;;;;12.48;6.15;;;;;;;;;;5030556;28;20045;-57
2023/05/20 03:06:56;;;;;;;12.13;5.97;;;;;;;;;;5031298;28;20048;-58
2023/05/20 03:09:23;;;;;;;11.88;5.53;;;;;;;;;;5023276;28;20111;-58
2023/05/20 03:11:50;;;;;;;14.95;6.40;;;;;;;;;;5039751;28;20033;-58
2023/05/20 03:14:16;;;;;;;11.80;5.30;;;;;;;;;;5030500;28;20038;-58
2023/05/20 03:16:42;;;;;;;12.40;6.30;;;;;;;;;;5031556;28;20047;-58
2023/05/20 03:19:08;;;;;;;11.20;5.90;;;;;;;;;;5031031;28;20103;-58
2023/05/20 03:21:34;;;;;;;11.80;6.20;;;;;;;;;;5023440;28;20049;-58
2023/05/20 03:24:00;;;;;;;9.38;5.43;;;;;;;;;;5031017;28;20033;-56
2023/05/20 03:26:26;;;;;;;12.90;5.60;;;;;;;;;;5029892;28;20041;-59
2023/05/20 03:28:52;;;;;;;12.85;5.90;;;;;;;;;;5027266;28;20045;-59
2023/05/20 03:31:18;;;;;;;11.90;5.60;;;;;;;;;;5026557;28;20096;-59
2023/05/20 03:33:45;;;;;;;13.23;5.70;;;;;;;;;;5029458;28;20073;-59
2023/05/20 03:36:11;;;;;;;13.43;5.13;;;;;;;;;;5028457;28;20564;-58
2023/05/20 03:38:37;;;;;;;11.48;5.65;;;;;;;;;;5030947;28;20041;-59
2023/05/20 03:41:03;;;;;;;13.13;5.40;;;;;;;;;;5030779;28;20516;-58
2023/05/20 03:43:29;;;;;;;9.52;4.82;;;;;;;;;;5025168;28;20045;-58
2023/05/20 03:45:55;;;;;;;9.15;5.70;;;;;;;;;;5030325;28;20112;-58
2023/05/20 03:48:21;;;;;;;11.10;5.55;;;;;;;;;;5028893;28;20124;-58
2023/05/20 03:50:48;;;;;;;9.88;5.13;;;;;;;;;;5028973;28;20551;-58
2023/05/20 03:53:14;;;;;;;9.77;5.18;;;;;;;;;;5030476;28;20418;-58
2023/05/20 03:55:40;;;;;;;11.15;4.75;;;;;;;;;;5023611;28;20035;-59
2023/05/20 03:58:06;;;;;;;9.55;4.75;;;;;;;;;;5030182;28;20041;-59
2023/05/20 04:00:32;;;;;;;10.25;5.00;;;;;;;;;;5030501;28;20046;-58
2023/05/20 04:02:59;;;;;;;10.27;4.00;;;;;;;;;;5028970;28;20091;-58
2023/05/20 04:05:25;;;;;;;9.32;4.68;;;;;;;;;;5030543;28;20431;-59
2023/05/20 04:07:51;;;;;;;10.38;4.50;;;;;;;;;;5029570;28;20124;-58
2023/05/20 04:10:18;;;;;;;9.23;4.22;;;;;;;;;;5028238;28;20117;-57
2023/05/20 04:12:45;;;;;;;9.48;4.28;;;;;;;;;;5029416;28;20081;-58
2023/05/20 04:15:11;;;;;;;10.15;4.00;;;;;;;;;;5030018;28;20046;-58
2023/05/20 04:17:39;;;;;;;8.82;3.97;;;;;;;;;;5030263;28;20112;-59
2023/05/20 04:20:06;;;;;;;9.02;3.78;;;;;;;;;;5028032;28;20057;-58
2023/05/20 04:22:32;;;;;;;8.85;4.07;;;;;;;;;;5030287;28;20045;-57
2023/05/20 04:24:58;;;;;;;9.07;3.65;;;;;;;;;;5028799;28;20419;-59
2023/05/20 04:27:24;;;;;;;12.25;4.25;;;;;;;;;;5029947;28;20040;-59
2023/05/20 04:29:51;;;;;;;7.68;3.83;;;;;;;;;;5012140;28;20041;-58
2023/05/20 04:32:18;;;;;;;7.63;3.45;;;;;;;;;;5029265;28;20037;-59
2023/05/20 04:34:44;;;;;;;8.40;3.33;;;;;;;;;;5030001;28;20126;-59
2023/05/20 04:37:11;;;;;;;8.32;4.20;;;;;;;;;;5028461;28;20038;-58
2023/05/20 04:39:37;;;;;;;7.13;3.58;;;;;;;;;;5029796;28;20049;-59
2023/05/20 04:42:03;;;;;;;6.97;3.20;;;;;;;;;;5029510;28;20046;-58
2023/05/20 04:44:29;;;;;;;7.35;3.20;;;;;;;;;;5030129;28;20069;-58
2023/05/20 04:46:59;;;;;;;7.20;2.65;;;;;;;;;;5028608;28;20407;-59
2023/05/20 04:49:25;;;;;;;7.47;2.85;;;;;;;;;;5028726;28;20133;-58
2023/05/20 04:51:54;;;;;;;7.40;3.28;;;;;;;;;;5029674;28;20465;-57
2023/05/20 04:54:20;;;;;;;8.23;3.10;;;;;;;;;;5029311;28;20041;-58
2023/05/20 04:56:46;;;;;;;7.07;2.78;;;;;;;;;;5029748;28;20367;-59
2023/05/20 04:59:12;;;;;;;6.55;2.72;;;;;;;;;;5028812;28;20069;-59
2023/05/20 05:01:38;;;;;;;6.32;2.47;;;;;;;;;;5011972;28;20190;-58
2023/05/20 05:04:04;;;;;;;7.53;2.63;;;;;;;;;;5027234;28;20049;-58
2023/05/20 05:06:31;;;;;;;6.18;2.53;;;;;;;;;;5026051;28;20049;-58
2023/05/20 05:08:57;;;;;;;7.75;2.83;;;;;;;;;;5028951;28;20502;-58
2023/05/20 05:11:23;;;;;;;7.10;2.58;;;;;;;;;;5029013;28;20048;-59
2023/05/20 05:13:49;;;;;;;7.43;2.50;;;;;;;;;;5029263;28;20042;-58
2023/05/20 05:16:14;;;;;;;6.20;2.60;;;;;;;;;;5027933;28;20068;-58
2023/05/20 05:18:40;;;;;;;6.93;2.80;;;;;;;;;;5021833;28;20411;-58
2023/05/20 05:21:06;;;;;;;6.53;2.40;;;;;;;;;;5029095;28;20073;-58
2023/05/20 05:23:32;;;;;;;8.70;2.47;;;;;;;;;;5029102;28;20490;-58
2023/05/20 05:25:59;;;;;;;6.28;2.28;;;;;;;;;;5028411;28;20402;-59
2023/05/20 05:28:25;;;;;;;6.63;2.33;;;;;;;;;;5028506;28;20129;-58
2023/05/20 05:30:53;;;;;;;6.05;2.30;;;;;;;;;;5029196;28;20516;-58
2023/05/20 05:33:19;;;;;;;5.88;2.25;;;;;;;;;;5028758;28;20052;-59
2023/05/20 05:35:46;;;;;;;6.68;2.17;;;;;;;;;;5029024;28;20038;-58
2023/05/20 05:38:12;;;;;;;6.10;2.10;;;;;;;;;;5028453;28;20125;-59
2023/05/20 05:40:38;;;;;;;5.22;1.88;;;;;;;;;;5023690;28;20066;-58
2023/05/20 05:43:04;;;;;;;6.60;2.50;;;;;;;;;;5025083;28;20042;-58
2023/05/20 05:45:30;;;;;;;8.15;2.45;;;;;;;;;;5027597;28;20148;-59
2023/05/20 05:47:56;;;;;;;6.15;2.20;;;;;;;;;;5029229;28;20048;-58
2023/05/20 05:50:22;;;;;;;5.93;2.28;;;;;;;;;;5028192;28;20052;-59
2023/05/20 05:52:48;;;;;;;7.03;2.53;;;;;;;;;;5028801;28;20029;-58
2023/05/20 05:55:14;;;;;;;5.13;2.00;;;;;;;;;;5020661;28;20049;-58
2023/05/20 05:57:42;;;;;;;7.85;2.00;;;;;;;;;;5028859;28;20041;-59
2023/05/20 06:00:08;;;;;;;5.15;1.85;;;;;;;;;;5028254;28;20049;-59
2023/05/20 06:02:34;;;;;;;6.18;2.38;;;;;;;;;;5028817;28;20041;-58
2023/05/20 06:05:04;;;;;;;5.43;2.03;;;;;;;;;;5028716;28;20040;-59
2023/05/20 06:07:30;;;;;;;5.63;2.00;;;;;;;;;;5028593;28;20076;-59
2023/05/20 06:09:56;;;;;;;4.60;2.00;;;;;;;;;;5029615;28;20442;-59
2023/05/20 06:12:22;;;;;;;6.03;2.30;;;;;;;;;;5032126;28;20040;-59
2023/05/20 06:14:48;;;;;;;5.97;2.13;;;;;;;;;;5032771;28;20352;-59
2023/05/20 06:17:14;;;;;;;4.75;1.85;;;;;;;;;;5032320;28;20518;-59
2023/05/20 06:19:40;;;;;;;5.93;2.25;;;;;;;;;;5032378;28;20048;-59
2023/05/20 06:22:08;;;;;;;7.45;2.28;;;;;;;;;;5032413;28;20038;-59
2023/05/20 06:24:34;;;;;;;5.82;2.22;;;;;;;;;;5032811;28;20056;-59
2023/05/20 06:27:01;;;;;;;6.32;2.08;;;;;;;;;;5031917;28;20045;-59
2023/05/20 06:29:28;;;;;;;6.60;2.13;;;;;;;;;;5030656;28;20053;-59
2023/05/20 06:31:56;;;;;;;5.88;2.30;;;;;;;;;;5032236;28;20034;-59
2023/05/20 06:34:22;;;;;;;4.65;1.85;;;;;;;;;;5032253;28;20440;-59
2023/05/20 06:36:48;;;;;;;6.47;1.80;;;;;;;;;;5032362;28;20095;-59
2023/05/20 06:39:14;;;;;;;4.75;1.80;;;;;;;;;;5030463;28;20041;-59
2023/05/20 06:41:44;;;;;;;4.35;1.58;;;;;;;;;;5032680;28;20639;-59
2023/05/20 06:44:10;;;;;;;5.00;1.90;;;;;;;;;;5031684;28;20403;-58
2023/05/20 06:46:36;;;;;;;6.18;1.75;;;;;;;;;;5032206;28;20414;-59
2023/05/20 06:49:02;;;;;;;4.45;1.80;;;;;;;;;;5030883;28;20053;-58
2023/05/20 06:51:28;;;;;;;3.95;1.50;;;;;;;;;;5034122;28;20088;-59
2023/05/20 06:53:58;;;;;;;4.07;1.45;;;;;;;;;;5031229;28;20453;-59
2023/05/20 06:56:24;;;;;;;5.35;1.60;;;;;;;;;;5024560;28;20040;-59
2023/05/20 06:58:52;;;;;;;4.50;1.50;;;;;;;;;;5031872;28;20156;-59
2023/05/20 07:01:18;;;;;;;5.85;1.70;;;;;;;;;;5031679;28;20037;-59
2023/05/20 07:03:46;;;;;;;5.85;1.63;;;;;;;;;;5014276;28;20140;-59
2023/05/20 07:06:14;;;;;;;5.55;2.40;;;;;;;;;;5030428;28;20064;-58
2023/05/20 07:08:42;;;;;;;6.43;1.73;;;;;;;;;;5030865;28;20049;-58
2023/05/20 07:11:08;;;;;;;5.90;1.90;;;;;;;;;;5031843;28;20038;-57
2023/05/20 07:13:34;;;;;;;4.95;1.85;;;;;;;;;;5031207;28;20068;-58
2023/05/20 07:16:00;;;;;;;5.50;1.70;;;;;;;;;;5032174;28;20065;-58
2023/05/20 07:18:27;;;;;;;6.28;1.95;;;;;;;;;;5031183;28;20068;-57
2023/05/20 07:20:55;;;;;;;5.05;1.42;;;;;;;;;;5030320;28;20041;-59
2023/05/20 07:23:22;;;;;;;5.22;1.80;;;;;;;;;;5029125;28;20499;-58
2023/05/20 07:25:50;;;;;;;4.93;2.10;;;;;;;;;;5031624;28;20109;-59
2023/05/20 07:28:16;;;;;;;5.90;1.83;;;;;;;;;;5029768;28;20057;-59
2023/05/20 07:30:48;;;;;;;3.88;1.45;;;;;;;;;;5030775;28;20041;-59
2023/05/20 07:33:18;;;;;;;3.70;1.52;;;;;;;;;;5029565;28;20100;-59
2023/05/20 07:35:45;;;;;;;5.95;1.80;;;;;;;;;;5031039;28;20091;-59
2023/05/20 07:38:11;;;;;;;5.05;1.85;;;;;;;;;;5030924;28;20113;-59
2023/05/20 07:40:40;;;;;;;5.45;2.20;;;;;;;;;;5030018;28;20578;-57
2023/05/20 07:43:08;;;;;;;5.28;1.85;;;;;;;;;;5029814;28;20076;-59
2023/05/20 07:45:35;;;;;;;7.95;1.90;;;;;;;;;;5029522;28;20067;-59
2023/05/20 07:48:01;;;;;;;8.07;2.10;;;;;;;;;;5029307;28;20042;-59
2023/05/20 07:50:27;;;;;;;8.00;2.00;;;;;;;;;;5028829;28;20053;-58
2023/05/20 07:52:57;;;;;;;5.00;1.50;;;;;;;;;;5030892;28;20124;-57
2023/05/20 07:55:25;;;;;;;5.30;1.80;;;;;;;;;;5022643;28;20404;-58
2023/05/20 07:57:55;;;;;;;6.25;2.08;;;;;;;;;;5030531;28;20035;-59
2023/05/20 08:00:23;;;;;;;7.25;1.80;;;;;;;;;;5030027;28;20507;-57
2023/05/20 08:02:49;;;;;;;6.57;2.03;;;;;;;;;;5028790;28;20159;-57
2023/05/20 08:05:18;;;;;;;6.70;1.77;;;;;;;;;;5022982;28;20052;-58
2023/05/20 08:07:47;;;;;;;5.72;1.90;;;;;;;;;;5013048;28;20052;-57
2023/05/20 08:10:19;;;;;;;4.40;1.58;;;;;;;;;;5029876;28;20038;-59
2023/05/20 08:12:49;;;;;;;5.82;1.90;;;;;;;;;;5030470;28;20406;-59
2023/05/20 08:15:19;;;;;;;5.80;2.00;;;;;;;;;;5027708;28;20091;-58
2023/05/20 08:17:50;;;;;;;5.20;1.75;;;;;;;;;;5030609;28;20040;-56
2023/05/20 08:20:25;;;;;;;6.07;1.98;;;;;;;;;;5029483;28;20048;-57
2023/05/20 08:22:54;;;;;;;7.55;1.85;;;;;;;;;;5029191;28;20524;-58
2023/05/20 08:25:22;;;;;;;5.72;1.67;;;;;;;;;;5029721;28;20037;-59
2023/05/20 08:27:53;;;;;;;4.72;1.80;;;;;;;;;;5029659;28;20498;-59
2023/05/20 08:30:25;;;;;;;5.10;1.65;;;;;;;;;;5027894;28;20041;-59
2023/05/20 08:32:52;;;;;;;5.13;1.60;;;;;;;;;;5029582;28;20059;-59
2023/05/20 08:35:23;;;;;;;6.40;1.50;;;;;;;;;;5029340;28;20036;-57
2023/05/20 08:37:52;;;;;;;7.38;2.08;;;;;;;;;;5012559;28;20128;-59
2023/05/20 08:40:20;;;;;;;6.78;1.50;;;;;;;;;;5027748;28;20041;-59
2023/05/20 08:42:48;;;;;;;6.25;1.90;;;;;;;;;;5028805;28;20132;-59
2023/05/20 08:45:19;;;;;;;4.88;1.48;;;;;;;;;;5030074;28;20044;-59
2023/05/20 08:47:48;;;;;;;5.82;1.63;;;;;;;;;;5022513;28;20108;-58
2023/05/20 08:50:21;;;;;;;4.25;1.40;;;;;;;;;;5028677;28;20048;-59
2023/05/20 08:52:52;;;;;;;4.53;1.40;;;;;;;;;;5028043;28;20483;-59
2023/05/20 08:55:28;;;;;;;6.72;1.70;;;;;;;;;;5021825;28;20038;-59
2023/05/20 08:57:57;;;;;;;5.20;1.30;;;;;;;;;;5030002;28;20037;-59
2023/05/20 09:00:27;;;;;;;4.30;1.48;;;;;;;;;;5029288;28;20026;-59
2023/05/20 09:02:57;;;;;;;4.95;1.30;;;;;;;;;;5029511;28;20046;-59
2023/05/20 09:05:26;;;;;;;6.68;1.70;;;;;;;;;;5029997;28;20045;-59
2023/05/20 09:07:54;;;;;;;4.35;1.38;;;;;;;;;;5029970;28;20036;-59
2023/05/20 09:10:27;;;;;;;5.20;1.45;;;;;;;;;;5029006;28;20037;-59
2023/05/20 09:12:53;;;;;;;6.28;1.60;;;;;;;;;;5029593;28;20038;-59
2023/05/20 09:15:21;;;;;;;8.20;1.70;;;;;;;;;;5028979;28;20125;-59
2023/05/20 09:17:52;;;;;;;5.82;1.80;;;;;;;;;;5029347;28;20490;-59
2023/05/20 09:20:28;;;;;;;6.20;1.55;;;;;;;;;;5025960;28;20552;-58
2023/05/20 09:22:55;;;;;;;4.55;1.35;;;;;;;;;;5028042;28;20053;-59
2023/05/20 09:25:24;;;;;;;4.97;1.60;;;;;;;;;;5029075;28;20455;-59
2023/05/20 09:27:51;;;;;;;6.30;1.70;;;;;;;;;;5028314;28;20080;-59
2023/05/20 09:30:21;;;;;;;7.07;1.50;;;;;;;;;;5028932;28;20056;-59
2023/05/20 09:32:58;;;;;;;5.80;1.40;;;;;;;;;;5021778;28;20041;-59
2023/05/20 09:35:29;;;;;;;4.82;1.33;;;;;;;;;;5026943;28;20084;-59
2023/05/20 09:37:56;;;;;;;7.90;1.92;;;15.80;99.90;;;;;;5023133;28;20051;-59
2023/05/20 09:40:25;;;;;;;5.18;1.73;;;15.80;99.90;;;;;;5029078;28;20491;-59
2023/05/20 09:42:54;;;;;;;6.97;2.10;;;;;;;;;;5030870;28;20034;-57
2023/05/20 09:45:22;;;;;;;7.53;1.98;;;;;;;;;;5024779;28;20041;-58
2023/05/20 09:47:50;;;;;;;7.45;1.77;;;16.10;99.90;;;;;;5027605;28;20415;-59
2023/05/20 09:50:16;;;;;;;7.05;1.75;;;15.80;99.90;;;;;;5022989;28;20046;-59
2023/05/20 09:52:42;;;;;;;6.57;1.73;;;16.10;99.90;;;;;;5032404;28;20034;-59
2023/05/20 09:55:10;;;;;;;5.78;1.88;;;;;;;;;;5033403;28;20087;-59
2023/05/20 09:57:38;;;;;;;6.97;1.75;;;;;;;;;;5031647;28;20046;-59
2023/05/20 10:00:07;;;;;;;6.28;1.70;;;;;;;;;;5032709;28;20113;-58
2023/05/20 10:02:34;;;;;;;4.97;1.67;;;;;;;;;;5031626;28;20049;-59
2023/05/20 10:05:10;;;;;;;6.45;1.80;;;16.40;99.90;;;;;;5033302;28;20045;-59
2023/05/20 10:07:36;;;;;;;5.20;1.92;;;;;;;;;;5032485;28;20358;-59
2023/05/20 10:10:02;;;;;;;5.57;1.75;;;;;;;;;;5032686;28;20099;-59
2023/05/20 10:12:29;;;;;;;5.70;1.80;;;;;;;;;;5032152;28;20053;-59
2023/05/20 10:15:04;;;;;;;5.20;1.60;;;;;;;;;;5029815;28;20049;-59
2023/05/20 10:17:47;;;;;;;7.00;2.08;;;;;;;;;;5032594;28;20047;-59
2023/05/20 10:20:13;;;;;;;6.85;2.13;;;16.00;99.90;;;;;;5032456;28;20499;-59
2023/05/20 10:22:39;;;;;;;7.07;2.17;;;16.40;99.90;;;;;;5030830;28;20056;-59
2023/05/20 10:25:07;;;;;;;7.10;3.45;;;;;;;;;;5032654;28;20231;-59
2023/05/20 10:27:45;;;;;;;6.63;2.15;;;;;;;;;;5028607;28;20096;-59
2023/05/20 10:30:24;;;;;;;9.63;3.03;;;;;;;;;;5025937;28;20037;-59
2023/05/20 10:32:56;;;;;;;9.90;2.70;;;;;;;;;;5032099;28;20073;-59
2023/05/20 10:35:26;;;;;;;9.07;2.78;;;;;;;;;;5032289;28;20584;-59
2023/05/20 10:38:06;;;;;;;5.80;2.03;;;;;;;;;;5026302;28;20128;-59
2023/05/20 10:40:32;;;;;;;7.20;2.22;;;16.50;99.90;;;;;;5031688;28;20526;-59
2023/05/20 10:43:11;;;;;;;5.78;2.30;;;17.00;99.90;;;;;;5030731;28;20041;-59
2023/05/20 10:45:50;;;;;;;7.00;2.00;;;17.20;99.90;;;;;;5030112;28;20041;-59
2023/05/20 10:48:23;;;;;;;7.03;2.10;;;17.10;99.90;;;;;;5032053;28;20044;-59
2023/05/20 10:50:49;;;;;;;6.25;2.00;;;17.30;99.90;;;;;;5024968;28;20069;-59
2023/05/20 10:53:15;;;;;;;6.07;2.03;;;17.40;99.90;;;;;;5030419;28;20467;-59
2023/05/20 10:55:50;;;;;;;6.15;2.38;;;;;;;;;;5031695;28;20047;-59
2023/05/20 10:58:16;;;;;;;5.97;1.95;;;;;;;;;;5030931;28;20045;-59
2023/05/20 11:00:42;;;;;;;6.13;2.53;;;17.70;99.90;;;;;;5031217;28;20048;-59
2023/05/20 11:03:08;;;;;;;7.20;2.38;;;17.60;99.90;;;;;;5030171;28;20037;-58
2023/05/20 11:05:35;;;;;;;7.43;2.38;;;17.80;99.90;;;;;;5031865;28;20038;-59
2023/05/20 11:08:02;;;;;;;9.63;2.20;;;17.80;99.90;;;;;;5031884;28;20495;-59
2023/05/20 11:10:30;;;;;;;7.07;2.28;;;;;;;;;;5026900;28;20069;-59
2023/05/20 11:12:56;;;;;;;10.77;1.92;;;17.80;99.90;;;;;;5031478;28;20053;-59
2023/05/20 11:15:23;;;;;;;7.20;2.42;;;17.90;99.90;;;;;;5031470;28;20551;-59
2023/05/20 11:17:58;;;;;;;10.38;2.72;;;17.80;99.90;;;;;;5031545;28;20029;-59
2023/05/20 11:20:24;;;;;;;7.38;3.28;;;17.70;99.90;;;;;;5031226;28;20029;-59
2023/05/20 11:22:50;;;;;;;5.57;2.42;;;18.10;99.90;;;;;;5030158;28;20128;-59
2023/05/20 11:25:17;;;;;;;11.73;4.30;;;18.00;99.90;;;;;;5031471;28;20033;-59
2023/05/20 11:27:43;;;;;;;6.88;2.90;;;18.20;99.90;;;;;;5030785;28;20096;-59
2023/05/20 11:30:10;;;;;;;7.68;2.33;;;;;;;;;;5029761;28;20041;-60
2023/05/20 11:32:36;;;;;;;7.03;1.92;;;18.00;99.90;;;;;;5029837;28;20045;-58
2023/05/20 11:35:03;;;;;;;7.60;3.20;;;18.40;99.90;;;;;;5013694;28;20048;-59
2023/05/20 11:37:30;;;;;;;8.00;2.33;;;18.50;99.90;;;;;;5030834;28;20045;-59
2023/05/20 11:40:06;;;;;;;8.02;2.30;;;;;;;;;;5031035;28;20045;-60
2023/05/20 11:42:32;;;;;;;8.35;2.28;;;18.80;99.90;;;;;;5031508;28;20147;-59
2023/05/20 11:44:59;;;;;;;9.18;2.20;;;19.10;99.90;;;;;;5039000;28;20037;-60
2023/05/20 11:47:28;;;;;;;6.97;2.40;;;19.20;99.90;;;;;;5031313;28;20552;-59
2023/05/20 11:49:55;;;;;;;7.57;3.03;;;19.10;99.90;;;;;;5029745;28;20406;-59
2023/05/20 11:52:21;;;;;;;10.60;2.35;;;18.80;99.90;;;;;;5031092;28;20042;-59
2023/05/20 11:54:53;;;;;;;5.70;2.42;;;19.30;99.90;;;;;;5031041;28;20468;-59
2023/05/20 11:57:19;;;;;;;8.23;2.53;;;19.00;99.90;;;;;;5031090;28;20174;-59
2023/05/20 11:59:46;;;;;;;6.05;2.28;;;19.00;99.90;;;;;;5030575;28;20032;-59
2023/05/20 12:02:12;;;;;;;7.30;1.95;;;19.40;99.90;;;;;;5030170;28;20384;-59
2023/05/20 12:04:38;;;;;;;6.78;2.53;;;19.20;99.90;;;;;;5030946;28;20056;-59
2023/05/20 12:07:08;;;;;;;7.95;2.78;;;19.30;99.90;;;;;;5030905;28;20038;-58
2023/05/20 12:09:33;;;;;;;7.32;2.00;;;19.40;99.90;;;;;;5031880;28;20570;-59
2023/05/20 12:12:00;;;;;;;6.63;2.40;;;20.00;99.90;;;;;;5029005;28;20124;-58
2023/05/20 12:14:25;;;;;;;9.25;2.25;;;19.70;99.90;;;;;;5026279;28;20522;-58
2023/05/20 12:16:52;;;;;;;5.57;2.30;;;20.10;99.90;;;;;;5030405;28;20030;-59
2023/05/20 12:19:18;;;;;;;12.93;2.88;;;20.10;99.90;;;;;;5030556;28;20033;-58
2023/05/20 12:21:46;;;;;;;6.88;2.30;;;20.50;99.90;;;;;;5029035;28;20041;-58
2023/05/20 12:24:12;;;;;;;10.07;2.90;;;20.60;99.90;;;;;;5029132;28;20040;-59
2023/05/20 12:26:37;;;;;;;8.10;2.45;;;20.80;99.90;;;;;;5029685;28;20407;-58
2023/05/20 12:29:03;;;;;;;8.00;2.50;;;21.10;99.90;;;;;;5028836;28;20728;-58
2023/05/20 12:31:29;;;;;;;11.10;2.60;;;21.30;99.90;;;;;;5030232;28;20041;-58
2023/05/20 12:33:55;;;;;;;6.65;2.33;;;22.70;99.90;;;;;;5021991;28;20040;-59
2023/05/20 12:36:21;;;;;;;5.00;2.05;;;25.80;99.90;;;;;;5032004;28;20037;-59
2023/05/20 12:38:46;;;;;;;7.75;3.10;;;27.60;99.90;;;;;;5031528;28;20041;-58
2023/05/20 12:41:12;;;;;;;7.45;3.25;;;29.50;99.90;;;;;;5030239;28;20471;-60
2023/05/20 12:43:38;;;;;;;7.60;3.28;;;31.30;99.90;;;;;;5028646;28;20041;-60
2023/05/20 12:46:04;;;;;;;7.97;2.92;;;32.80;99.90;;;;;;5029910;28;20403;-59
2023/05/20 12:48:30;;;;;;;7.90;2.53;;;33.80;99.90;;;;;;5036255;28;20052;-60
2023/05/20 12:50:56;;;;;;;5.70;2.03;;;35.00;99.90;;;;;;5029129;28;20037;-60
2023/05/20 12:53:21;;;;;;;6.68;2.33;;;35.90;99.90;;;;;;5012178;28;20458;-60
2023/05/20 12:55:47;;;;;;;6.28;2.30;;;36.90;99.90;;;;;;5029505;28;20107;-59
2023/05/20 12:58:13;;;;;;;11.35;3.45;;;37.60;99.50;;;;;;5029865;28;20679;-60
2023/05/20 13:00:38;;;;;;;7.40;2.70;;;38.20;95.80;;;;;;5029179;28;20199;-60
2023/05/20 13:03:04;;;;;;;6.80;2.13;;;38.70;83.10;;;;;;5029308;28;20561;-60
2023/05/20 13:05:30;;;;;;;5.38;2.13;;;39.00;78.10;;;;;;5035953;28;20531;-60
2023/05/20 13:07:56;;;;;;;9.82;2.60;;;39.70;79.70;;;;;;5042568;28;20045;-60
2023/05/20 13:10:22;;;;;;;6.82;2.40;;;40.10;68.60;;;;;;5043475;28;20048;-60
2023/05/20 13:12:48;;;;;;;6.15;2.47;;;;;;;;;;5045079;28;20037;-60
2023/05/20 13:15:14;;;;;;;5.97;2.13;;;40.70;30.50;;;;;;5043317;28;20033;-60
2023/05/20 13:17:44;;;;;;;5.82;2.17;;;41.10;50.10;;;;;;5041028;28;20490;-60
2023/05/20 13:20:10;;;;;;;6.72;2.30;;;41.80;35.20;;;;;;5038247;28;20041;-60
2023/05/20 13:22:36;;;;;;;6.28;2.22;;;41.80;26.90;;;;;;5035787;28;20095;-61
2023/05/20 13:25:03;;;;;;;6.80;2.30;;;42.10;43.50;;;;;;5041434;28;20037;-61
2023/05/20 13:27:29;;;;;;;6.40;2.50;;;42.30;21.50;;;;;;5036297;28;20049;-60
2023/05/20 13:29:55;;;;;;;8.30;2.63;;;42.20;19.20;;;;;;5043268;28;20037;-61
2023/05/20 13:32:20;;;;;;;7.32;2.67;;;42.70;16.70;;;;;;5019314;28;20068;-60
2023/05/20 13:34:46;;;;;;;7.10;2.78;;;42.90;15.10;;;;;;5044290;28;20136;-60
2023/05/20 13:37:12;;;;;;;8.88;2.80;;;42.80;9.20;;;;;;5035461;28;20060;-60
2023/05/20 13:39:37;;;;;;;6.97;2.50;;;42.80;4.90;;;;;;5037093;28;20038;-60
2023/05/20 13:42:03;;;;;;;5.90;2.20;;;43.20;3.80;;;;;;5041515;28;20043;-60
2023/05/20 13:44:29;;;;;;;8.27;2.80;;;43.40;1.00;;;;;;5040856;28;20410;-60
2023/05/20 13:46:55;;;;;;;7.00;2.72;;;43.60;1.00;;;;;;5022583;28;20166;-60
2023/05/20 13:49:21;;;;;;;7.30;3.05;;;43.60;4.10;;;;;;5031604;28;20082;-60
2023/05/20 13:51:46;;;;;;;5.57;2.35;;;43.40;1.00;;;;;;5032234;28;20065;-60
2023/05/20 13:54:12;;;;;;;6.65;2.38;;;43.60;1.00;;;;;;5047084;28;20107;-60
2023/05/20 13:56:37;;;;;;;7.20;2.83;;;43.60;1.00;;;;;;5031213;28;20061;-60
2023/05/20 13:59:03;;;;;;;6.93;2.42;;;43.80;1.00;;;;;;5047955;28;20036;-60
2023/05/20 14:01:32;;;;;;;7.47;2.60;;;44.00;1.00;;;;;;5029182;28;20501;-60
2023/05/20 14:03:58;;;;;;;8.23;2.60;;;43.40;1.00;;;;;;5029039;28;20076;-60
2023/05/20 14:06:25;;;;;;;6.88;2.42;;;43.20;1.00;;;;;;5039836;28;20443;-60